createdAt,value
2019-01-17T00:01:10.063Z,90.79
2019-01-17T00:17:52.083Z,92.77
2019-01-17T00:35:15.454Z,93.61
2019-01-17T00:46:25.823Z,93.19
2019-01-17T00:52:03.492Z,93.37
2019-01-17T01:08:39.448Z,93.76
2019-01-17T01:19:46.234Z,94.04
2019-01-17T01:25:45.558Z,94.94
2019-01-17T01:31:23.298Z,94.74
2019-01-17T01:48:02.322Z,95.01
2019-01-17T01:53:40.128Z,94.53
2019-01-17T02:04:31.323Z,94.87
2019-01-17T02:09:49.860Z,94.89
2019-01-17T02:15:08.409Z,95.06
2019-01-17T02:20:26.932Z,94.91
2019-01-17T02:25:45.550Z,94.92
2019-01-17T02:31:04.142Z,94.96
2019-01-17T02:36:22.686Z,95.38
2019-01-17T02:41:41.287Z,95.35
2019-01-17T02:46:59.903Z,95.29
2019-01-17T02:52:18.513Z,95.57
2019-01-17T02:57:37.310Z,95.76
2019-01-17T03:02:55.794Z,95.52
2019-01-17T03:08:14.396Z,95.55
2019-01-17T03:13:32.932Z,95.73
2019-01-17T03:18:51.400Z,95.77
2019-01-17T03:24:09.872Z,95.92
2019-01-17T03:29:28.341Z,96.31
2019-01-17T03:34:47.068Z,96.11
2019-01-17T03:40:26.700Z,95.91
2019-01-17T03:45:45.248Z,96.17
2019-01-17T03:51:03.859Z,96.17
2019-01-17T03:56:22.388Z,96.27
2019-01-17T04:01:40.936Z,95.98
2019-01-17T04:06:59.399Z,96.03
2019-01-17T04:17:48.445Z,95.65
2019-01-17T04:23:06.986Z,95.59
2019-01-17T04:28:25.582Z,95.44
2019-01-17T04:33:44.048Z,95.06
2019-01-17T04:39:02.684Z,94.87
2019-01-17T04:44:21.241Z,94.64
2019-01-17T04:49:39.699Z,94.59
2019-01-17T04:55:04.816Z,94.48
2019-01-17T05:00:58.450Z,94.32
2019-01-17T05:06:17.241Z,94.60
2019-01-17T05:11:35.779Z,94.44
2019-01-17T05:16:54.409Z,93.81
2019-01-17T05:22:12.853Z,94.22
2019-01-17T05:27:31.458Z,94.45
2019-01-17T05:32:49.996Z,94.42
2019-01-17T05:38:08.521Z,94.41
2019-01-17T05:43:27.355Z,94.32
2019-01-17T05:48:46.823Z,94.22
2019-01-17T05:54:06.303Z,94.36
2019-01-17T05:59:24.827Z,94.64
2019-01-17T06:04:43.359Z,94.60
2019-01-17T06:10:01.840Z,94.51
2019-01-17T06:20:52.452Z,94.68
2019-01-17T06:26:11.056Z,93.74
2019-01-17T06:31:29.606Z,93.48
2019-01-17T06:37:07.399Z,93.01
2019-01-17T06:42:25.950Z,93.01
2019-01-17T06:47:44.919Z,92.81
2019-01-17T06:53:03.536Z,92.74
2019-01-17T06:58:21.983Z,93.15
2019-01-17T07:03:40.593Z,92.99
2019-01-17T07:09:13.331Z,92.42
2019-01-17T07:14:19.384Z,92.41
2019-01-17T07:19:37.919Z,91.59
2019-01-17T07:24:56.380Z,92.30
2019-01-17T07:30:54.751Z,92.10
2019-01-17T07:36:32.426Z,91.69
2019-01-17T07:41:51.049Z,91.51
2019-01-17T07:47:09.683Z,91.48
2019-01-17T07:52:28.308Z,91.25
2019-01-17T07:57:46.930Z,89.72
2019-01-17T08:03:05.667Z,88.53
2019-01-17T08:08:24.198Z,88.82
2019-01-17T08:13:42.756Z,88.80
2019-01-17T08:19:01.440Z,88.52
2019-01-17T08:24:20.060Z,88.70
2019-01-17T08:29:38.665Z,88.41
2019-01-17T08:34:57.355Z,88.38
2019-01-17T08:40:20.434Z,88.72
2019-01-17T08:45:39.279Z,89.30
2019-01-17T08:50:57.906Z,89.85
2019-01-17T08:56:16.528Z,90.07
2019-01-17T09:01:35.179Z,90.27
2019-01-17T09:06:53.847Z,89.82
2019-01-17T09:12:12.494Z,89.62
2019-01-17T09:17:31.158Z,89.49
2019-01-17T09:22:49.796Z,88.70
2019-01-17T09:28:08.430Z,89.17
2019-01-17T09:33:27.454Z,88.45
2019-01-17T09:38:46.044Z,88.53
2019-01-17T09:44:04.796Z,88.77
2019-01-17T09:49:23.532Z,88.85
2019-01-17T09:54:42.165Z,89.25
2019-01-17T10:00:00.790Z,89.01
2019-01-17T10:05:19.400Z,88.68
2019-01-17T10:10:38.020Z,89.59
2019-01-17T10:15:59.548Z,90.41
2019-01-17T10:21:40.407Z,91.39
2019-01-17T10:27:01.949Z,91.96
2019-01-17T10:32:35.515Z,92.21
2019-01-17T10:38:02.845Z,92.40
2019-01-17T10:43:30.011Z,92.96
2019-01-17T10:48:51.554Z,93.61
2019-01-17T10:54:19.005Z,92.35
2019-01-17T10:59:40.570Z,93.16
2019-01-17T11:05:07.860Z,94.24
2019-01-17T11:10:53.923Z,94.08
2019-01-17T11:16:34.600Z,92.68
2019-01-17T11:22:12.620Z,93.46
2019-01-17T11:27:43.287Z,93.98
2019-01-17T11:33:07.545Z,93.76
2019-01-17T11:38:44.174Z,93.88
2019-01-17T11:44:05.774Z,93.76
2019-01-17T11:49:43.800Z,93.88
2019-01-17T11:55:11.115Z,93.66
2019-01-17T12:00:35.451Z,94.33
2019-01-17T12:05:54.082Z,94.53
2019-01-17T12:11:12.876Z,94.42
2019-01-17T12:16:31.756Z,94.33
2019-01-17T12:21:50.466Z,94.00
2019-01-17T12:27:10.288Z,93.90
2019-01-17T12:32:28.891Z,94.09
2019-01-17T12:37:47.538Z,94.34
2019-01-17T12:43:06.636Z,94.26
2019-01-17T12:48:25.292Z,94.41
2019-01-17T12:53:45.017Z,94.60
2019-01-17T12:59:03.738Z,94.66
2019-01-17T13:04:22.376Z,94.44
2019-01-17T13:09:41.122Z,94.08
2019-01-17T13:14:59.788Z,94.25
2019-01-17T13:20:18.520Z,93.62
2019-01-17T13:25:37.180Z,93.98
2019-01-17T13:30:55.829Z,93.73
2019-01-17T13:36:15.693Z,94.02
2019-01-17T13:41:34.328Z,93.80
2019-01-17T13:46:53.348Z,94.04
2019-01-17T13:52:12.003Z,94.51
2019-01-17T13:57:31.505Z,94.87
2019-01-17T14:02:50.252Z,94.87
2019-01-17T14:08:08.921Z,94.50
2019-01-17T14:13:27.592Z,94.01
2019-01-17T14:18:46.233Z,94.15
2019-01-17T14:24:05.115Z,93.92
2019-01-17T14:29:23.836Z,93.86
2019-01-17T14:34:42.739Z,94.03
2019-01-17T14:40:03.258Z,93.70
2019-01-17T14:45:22.847Z,92.12
2019-01-17T14:50:41.787Z,92.85
2019-01-17T14:56:00.418Z,93.19
2019-01-17T15:01:19.645Z,93.35
2019-01-17T15:06:38.294Z,93.28
2019-01-17T15:11:56.940Z,92.69
2019-01-17T15:17:15.665Z,92.85
2019-01-17T15:22:34.261Z,92.52
2019-01-17T15:27:53.007Z,93.17
2019-01-17T15:33:11.545Z,91.38
2019-01-17T15:38:30.193Z,90.46
2019-01-17T15:43:50.015Z,91.12
2019-01-17T15:49:08.681Z,91.49
2019-01-17T15:54:27.362Z,91.87
2019-01-17T15:59:45.940Z,91.11
2019-01-17T16:05:06.192Z,91.76
2019-01-17T16:10:24.810Z,91.81
2019-01-17T16:15:43.519Z,91.21
2019-01-17T16:21:02.216Z,90.42
2019-01-17T16:26:22.395Z,90.58
2019-01-17T16:31:41.103Z,90.73
2019-01-17T16:37:00.181Z,90.60
2019-01-17T16:42:18.896Z,91.03
2019-01-17T16:47:37.436Z,90.48
2019-01-17T16:52:56.102Z,91.26
2019-01-17T16:58:15.087Z,91.19
2019-01-17T17:03:33.660Z,92.05
2019-01-17T17:08:52.285Z,92.38
2019-01-17T17:14:11.311Z,93.31
2019-01-17T17:19:30.140Z,92.97
2019-01-17T17:24:48.893Z,92.92
2019-01-17T17:30:10.479Z,93.16
2019-01-17T17:35:29.138Z,92.94
2019-01-17T17:40:47.863Z,93.21
2019-01-17T17:46:06.456Z,92.61
2019-01-17T17:51:25.082Z,93.12
2019-01-17T17:56:43.739Z,94.02
2019-01-17T18:02:02.920Z,93.93
2019-01-17T18:07:21.554Z,93.95
2019-01-17T18:12:40.210Z,93.33
2019-01-17T18:17:58.853Z,93.26
2019-01-17T18:23:17.437Z,93.60
2019-01-17T18:28:37.679Z,93.35
2019-01-17T18:33:56.255Z,93.54
2019-01-17T18:39:15.068Z,93.79
2019-01-17T18:44:33.719Z,93.97
2019-01-17T18:49:52.335Z,93.55
2019-01-17T18:55:11.096Z,93.20
2019-01-17T19:00:30.987Z,93.32
2019-01-17T19:05:49.601Z,93.17
2019-01-17T19:11:08.303Z,93.66
2019-01-17T19:16:26.986Z,93.63
2019-01-17T19:21:47.081Z,93.67
2019-01-17T19:27:08.865Z,93.93
2019-01-17T19:32:27.444Z,93.86
2019-01-17T19:37:46.159Z,93.64
2019-01-17T19:43:13.936Z,93.52
2019-01-17T19:48:29.930Z,93.68
2019-01-17T19:53:48.547Z,94.15
2019-01-17T19:59:07.169Z,93.80
2019-01-17T20:04:26.071Z,93.63
2019-01-17T20:09:44.781Z,94.01
2019-01-17T20:15:03.663Z,93.76
2019-01-17T20:20:22.457Z,93.42
2019-01-17T20:25:41.205Z,93.36
2019-01-17T20:30:59.878Z,92.96
2019-01-17T20:36:18.531Z,92.57
2019-01-17T20:41:37.219Z,93.24
2019-01-17T20:46:55.839Z,93.65
2019-01-17T20:52:14.737Z,93.21
2019-01-17T20:57:33.565Z,92.61
2019-01-17T21:02:52.284Z,93.16
2019-01-17T21:08:10.917Z,92.93
2019-01-17T21:13:29.611Z,93.45
2019-01-17T21:18:48.253Z,93.09
2019-01-17T21:24:06.971Z,93.47
2019-01-17T21:29:25.570Z,93.46
2019-01-17T21:34:44.149Z,93.33
2019-01-17T21:40:02.909Z,92.94
2019-01-17T21:45:21.912Z,93.32
2019-01-17T21:50:40.569Z,93.00
2019-01-17T21:55:59.181Z,92.63
2019-01-17T22:01:17.813Z,93.10
2019-01-17T22:06:36.435Z,92.82
2019-01-17T22:11:55.178Z,92.58
2019-01-17T22:17:13.723Z,92.91
2019-01-17T22:22:32.361Z,92.95
2019-01-17T22:27:52.697Z,92.84
2019-01-17T22:33:11.365Z,92.65
2019-01-17T22:38:30.087Z,92.55
2019-01-17T22:43:48.626Z,92.50
2019-01-17T22:49:07.197Z,92.75
2019-01-17T22:54:25.757Z,92.97
2019-01-17T22:59:44.380Z,92.76
2019-01-17T23:05:03.360Z,92.87
2019-01-17T23:10:22.046Z,92.89
2019-01-17T23:15:40.630Z,92.78
2019-01-17T23:20:59.205Z,93.32
2019-01-17T23:26:17.811Z,93.40
2019-01-17T23:31:36.434Z,93.48
2019-01-17T23:36:55.073Z,93.60
2019-01-17T23:42:13.684Z,93.32
2019-01-17T23:47:32.247Z,93.23
2019-01-17T23:52:50.841Z,93.39
2019-01-17T23:58:09.462Z,93.28
